createdAt,value
2019-03-25T00:01:19.327Z,86.46
2019-03-25T00:07:22.445Z,86.50
2019-03-25T00:12:38.760Z,86.98
2019-03-25T00:15:47.199Z,86.60
2019-03-25T00:18:15.873Z,86.41
2019-03-25T00:21:04.142Z,85.62
2019-03-25T00:23:52.102Z,85.76
2019-03-25T00:26:20.719Z,85.61
2019-03-25T00:29:08.646Z,86.10
2019-03-25T00:31:56.513Z,86.59
2019-03-25T00:34:44.382Z,85.73
2019-03-25T00:37:13.068Z,85.21
2019-03-25T00:40:00.966Z,85.30
2019-03-25T00:42:29.657Z,85.61
2019-03-25T00:44:58.302Z,85.13
2019-03-25T00:47:46.251Z,85.18
2019-03-25T00:50:15.042Z,85.33
2019-03-25T00:52:43.692Z,85.54
2019-03-25T00:55:31.572Z,85.33
2019-03-25T00:58:19.429Z,86.42
2019-03-25T01:00:48.157Z,87.13
2019-03-25T01:06:04.488Z,85.59
2019-03-25T01:08:33.215Z,85.37
2019-03-25T01:11:21.031Z,84.58
2019-03-25T01:14:08.933Z,85.25
2019-03-25T01:16:56.885Z,85.52
2019-03-25T01:19:25.700Z,85.89
2019-03-25T01:21:54.353Z,85.00
2019-03-25T01:24:42.313Z,84.85
2019-03-25T01:27:11.009Z,84.21
2019-03-25T01:32:14.254Z,82.17
2019-03-25T01:35:02.230Z,81.43
2019-03-25T01:37:50.056Z,80.56
2019-03-25T01:40:58.540Z,77.38
2019-03-25T01:43:46.371Z,78.83
2019-03-25T01:46:34.308Z,81.47
2019-03-25T01:49:22.258Z,82.87
2019-03-25T01:52:10.132Z,83.46
2019-03-25T01:54:58.089Z,83.03
2019-03-25T01:57:26.737Z,83.10
2019-03-25T02:00:14.681Z,82.84
2019-03-25T02:03:02.518Z,81.68
2019-03-25T02:05:50.489Z,80.97
2019-03-25T02:08:38.445Z,79.80
2019-03-25T02:11:26.250Z,79.54
2019-03-25T02:13:54.901Z,77.53
2019-03-25T02:16:42.787Z,77.09
2019-03-25T02:22:18.245Z,77.10
2019-03-25T02:27:53.762Z,71.13
2019-03-25T02:32:57.042Z,70.30
2019-03-25T02:35:44.776Z,70.80
2019-03-25T02:38:32.603Z,71.08
2019-03-25T02:41:20.571Z,70.57
2019-03-25T02:43:49.139Z,70.26
2019-03-25T02:46:37.036Z,70.11
2019-03-25T02:49:05.723Z,69.97
2019-03-25T02:51:53.666Z,71.03
2019-03-25T02:54:41.670Z,71.86
2019-03-25T02:57:29.485Z,70.70
2019-03-25T03:00:17.329Z,70.02
2019-03-25T03:03:05.147Z,70.92
2019-03-25T03:05:53.109Z,70.62
2019-03-25T03:08:40.944Z,70.51
2019-03-25T03:11:28.830Z,72.16
2019-03-25T03:14:16.791Z,73.04
2019-03-25T03:17:04.577Z,73.40
2019-03-25T03:19:33.224Z,73.12
2019-03-25T03:22:21.109Z,72.79
2019-03-25T03:24:49.835Z,71.65
2019-03-25T03:27:18.484Z,70.88
2019-03-25T03:30:06.365Z,71.24
2019-03-25T03:32:35.011Z,69.89
2019-03-25T03:37:58.578Z,71.06
2019-03-25T03:43:04.478Z,69.15
2019-03-25T03:45:33.205Z,69.79
2019-03-25T03:48:01.826Z,70.67
2019-03-25T03:50:30.524Z,70.27
2019-03-25T03:52:59.248Z,70.47
2019-03-25T03:59:02.272Z,70.24
2019-03-25T04:01:30.912Z,70.49
2019-03-25T04:03:59.527Z,70.48
2019-03-25T04:06:28.424Z,70.27
2019-03-25T04:09:16.367Z,69.66
2019-03-25T04:14:19.135Z,69.05
2019-03-25T04:16:47.887Z,69.22
2019-03-25T04:19:35.719Z,68.13
2019-03-25T04:22:23.660Z,69.10
2019-03-25T04:25:11.493Z,67.69
2019-03-25T04:27:59.380Z,68.42
2019-03-25T04:30:47.806Z,68.90
2019-03-25T04:33:18.157Z,68.84
2019-03-25T04:36:06.059Z,67.94
2019-03-25T04:38:53.930Z,68.26
2019-03-25T04:41:41.654Z,67.70
2019-03-25T04:44:29.516Z,68.28
2019-03-25T04:46:58.144Z,67.88
2019-03-25T04:49:26.715Z,68.05
2019-03-25T04:52:14.590Z,67.88
2019-03-25T04:55:02.384Z,67.62
2019-03-25T04:57:31.022Z,67.67
2019-03-25T05:00:18.880Z,68.12
2019-03-25T05:03:06.631Z,69.01
2019-03-25T05:05:36.296Z,68.89
2019-03-25T05:08:05.704Z,69.86
2019-03-25T05:10:34.357Z,69.57
2019-03-25T05:13:03.045Z,69.67
2019-03-25T05:15:31.618Z,69.80
2019-03-25T05:18:00.296Z,69.91
2019-03-25T05:20:28.908Z,70.11
2019-03-25T05:23:16.864Z,69.87
2019-03-25T05:25:45.545Z,70.27
2019-03-25T05:28:14.119Z,71.17
2019-03-25T05:30:42.809Z,70.98
2019-03-25T05:33:30.643Z,71.12
2019-03-25T05:35:59.260Z,71.27
2019-03-25T05:38:47.208Z,71.61
2019-03-25T05:41:34.969Z,71.73
2019-03-25T05:44:43.435Z,71.74
2019-03-25T05:47:12.071Z,72.25
2019-03-25T05:49:40.752Z,72.30
2019-03-25T05:52:09.436Z,72.61
2019-03-25T05:54:57.279Z,73.07
2019-03-25T05:57:45.548Z,73.44
2019-03-25T06:06:58.878Z,73.06
2019-03-25T06:12:56.024Z,73.28
2019-03-25T06:15:45.757Z,73.13
2019-03-25T06:18:14.406Z,72.79
2019-03-25T06:21:02.163Z,72.61
2019-03-25T06:23:50.035Z,71.86
2019-03-25T06:26:37.892Z,71.41
2019-03-25T06:29:25.697Z,70.95
2019-03-25T06:32:13.643Z,70.49
2019-03-25T06:34:42.397Z,66.96
2019-03-25T06:37:11.051Z,62.40
2019-03-25T06:39:59.019Z,62.57
2019-03-25T06:42:27.584Z,61.49
2019-03-25T06:44:56.239Z,64.53
2019-03-25T06:47:24.929Z,66.15
2019-03-25T06:49:53.582Z,67.61
2019-03-25T06:52:22.262Z,67.89
2019-03-25T06:54:50.997Z,66.70
2019-03-25T06:57:25.443Z,64.96
2019-03-25T06:59:50.056Z,65.54
2019-03-25T07:02:37.939Z,64.04
2019-03-25T07:05:46.418Z,65.91
2019-03-25T07:08:34.294Z,63.13
2019-03-25T07:11:42.769Z,60.58
2019-03-25T07:14:11.455Z,60.86
2019-03-25T07:16:40.139Z,59.51
2019-03-25T07:19:48.601Z,58.41
2019-03-25T07:22:17.248Z,61.43
2019-03-25T07:25:05.117Z,62.60
2019-03-25T07:27:52.982Z,62.44
2019-03-25T07:30:40.744Z,60.46
2019-03-25T07:33:09.393Z,58.78
2019-03-25T07:35:57.274Z,59.14
2019-03-25T07:38:25.912Z,59.65
2019-03-25T07:40:54.458Z,60.42
2019-03-25T07:43:23.100Z,61.42
2019-03-25T07:45:51.903Z,62.04
2019-03-25T07:48:20.404Z,62.18
2019-03-25T07:50:49.055Z,61.65
2019-03-25T07:53:36.995Z,62.24
2019-03-25T07:56:24.891Z,62.28
2019-03-25T07:59:12.743Z,63.56
2019-03-25T08:02:00.566Z,63.74
2019-03-25T08:04:48.414Z,63.81
2019-03-25T08:07:17.003Z,64.52
2019-03-25T08:10:04.811Z,63.12
2019-03-25T08:12:52.719Z,63.00
2019-03-25T08:15:40.697Z,59.63
2019-03-25T08:18:28.509Z,59.07
2019-03-25T08:20:57.157Z,58.04
2019-03-25T08:23:25.833Z,57.91
2019-03-25T08:25:54.406Z,57.77
2019-03-25T08:28:42.347Z,57.12
2019-03-25T08:33:45.546Z,56.50
2019-03-25T08:39:22.359Z,56.97
2019-03-25T08:41:51.047Z,56.99
2019-03-25T08:44:38.812Z,58.23
2019-03-25T08:47:07.359Z,57.34
2019-03-25T08:49:35.977Z,58.66
2019-03-25T08:52:23.738Z,59.67
2019-03-25T08:54:52.428Z,59.89
2019-03-25T08:57:40.298Z,60.29
2019-03-25T09:00:48.759Z,60.10
2019-03-25T09:03:36.637Z,58.81
2019-03-25T09:06:05.383Z,59.48
2019-03-25T09:08:34.097Z,59.21
2019-03-25T09:11:21.975Z,58.23
2019-03-25T09:14:09.795Z,58.57
2019-03-25T09:16:38.479Z,59.54
2019-03-25T09:22:15.292Z,59.96
2019-03-25T09:24:43.879Z,60.41
2019-03-25T09:27:31.732Z,61.26
2019-03-25T09:30:03.330Z,61.93
2019-03-25T09:32:30.847Z,61.39
2019-03-25T09:35:18.926Z,61.62
2019-03-25T09:37:47.609Z,62.01
2019-03-25T09:40:16.240Z,61.15
2019-03-25T09:43:04.179Z,61.85
2019-03-25T09:45:33.008Z,62.49
2019-03-25T09:48:20.829Z,64.17
2019-03-25T09:50:49.617Z,65.42
2019-03-25T09:53:37.530Z,64.79
2019-03-25T09:56:25.249Z,66.17
2019-03-25T09:59:13.063Z,64.44
2019-03-25T10:02:00.872Z,64.11
2019-03-25T10:04:29.647Z,64.89
2019-03-25T10:07:38.152Z,64.01
2019-03-25T10:10:46.596Z,65.93
2019-03-25T10:13:15.279Z,66.96
2019-03-25T10:16:03.220Z,70.45
2019-03-25T10:18:31.863Z,73.58
2019-03-25T10:21:00.516Z,75.23
2019-03-25T10:23:48.597Z,76.54
2019-03-25T10:26:37.979Z,75.41
2019-03-25T10:29:25.808Z,74.05
2019-03-25T10:31:54.495Z,75.74
2019-03-25T10:34:23.168Z,71.62
2019-03-25T10:36:51.847Z,70.85
2019-03-25T10:39:20.488Z,71.86
2019-03-25T10:42:08.355Z,69.77
2019-03-25T10:44:36.977Z,66.99
2019-03-25T10:49:39.650Z,64.47
2019-03-25T10:52:48.062Z,64.06
2019-03-25T10:55:16.747Z,65.53
2019-03-25T10:57:45.392Z,64.22
2019-03-25T11:00:53.857Z,61.63
2019-03-25T11:03:41.682Z,61.46
2019-03-25T11:09:44.543Z,61.95
2019-03-25T11:12:32.388Z,62.89
2019-03-25T11:15:01.058Z,64.40
2019-03-25T11:17:48.973Z,64.09
2019-03-25T11:23:12.235Z,60.42
2019-03-25T11:25:40.924Z,59.89
2019-03-25T11:28:09.593Z,61.07
2019-03-25T11:31:18.064Z,63.78
2019-03-25T11:33:46.714Z,68.11
2019-03-25T11:36:15.401Z,71.78
2019-03-25T11:38:44.050Z,73.45
2019-03-25T11:41:12.726Z,73.97
2019-03-25T11:43:41.363Z,73.95
2019-03-25T11:46:10.072Z,69.87
2019-03-25T11:48:38.738Z,71.68
2019-03-25T11:51:07.381Z,70.97
2019-03-25T11:53:36.067Z,70.65
2019-03-25T11:56:04.704Z,67.78
2019-03-25T11:58:33.383Z,65.61
2019-03-25T12:01:21.167Z,64.59
2019-03-25T12:04:10.593Z,60.12
2019-03-25T12:06:39.393Z,59.92
2019-03-25T12:09:47.851Z,60.62
2019-03-25T12:15:23.394Z,60.10
2019-03-25T12:17:52.026Z,59.23
2019-03-25T12:20:20.715Z,58.69
2019-03-25T12:22:49.416Z,59.33
2019-03-25T12:25:18.062Z,58.58
2019-03-25T12:27:46.842Z,61.92
2019-03-25T12:33:23.735Z,64.78
2019-03-25T12:36:11.615Z,64.44
2019-03-25T12:38:59.508Z,62.62
2019-03-25T12:41:47.343Z,62.07
2019-03-25T12:44:15.957Z,62.62
2019-03-25T12:47:03.791Z,57.85
2019-03-25T12:49:32.479Z,53.79
2019-03-25T12:52:20.328Z,53.06
2019-03-25T12:54:48.986Z,54.63
2019-03-25T12:57:36.838Z,53.23
2019-03-25T13:00:45.294Z,52.96
2019-03-25T13:03:13.966Z,48.79
2019-03-25T13:08:50.771Z,49.42
2019-03-25T13:11:19.532Z,46.79
2019-03-25T13:14:07.356Z,47.57
2019-03-25T13:16:36.029Z,44.42
2019-03-25T13:19:04.805Z,43.45
2019-03-25T13:21:33.414Z,43.11
2019-03-25T13:24:02.018Z,45.83
2019-03-25T13:26:49.833Z,43.53
2019-03-25T13:29:18.504Z,43.55
2019-03-25T13:32:06.333Z,42.08
2019-03-25T13:34:35.024Z,43.63
2019-03-25T13:37:03.669Z,41.85
2019-03-25T13:39:51.528Z,43.05
2019-03-25T13:42:39.218Z,45.25
2019-03-25T13:45:47.695Z,46.23
2019-03-25T13:48:35.492Z,46.41
2019-03-25T13:51:43.978Z,49.76
2019-03-25T13:54:31.759Z,54.84
2019-03-25T13:57:00.375Z,54.81
2019-03-25T13:59:28.939Z,56.30
2019-03-25T14:01:57.549Z,57.86
2019-03-25T14:04:26.193Z,57.87
2019-03-25T14:07:14.064Z,54.56
2019-03-25T14:10:01.798Z,54.56
2019-03-25T14:12:51.892Z,52.79
2019-03-25T14:15:20.229Z,51.62
2019-03-25T14:17:48.864Z,53.21
2019-03-25T14:20:17.483Z,53.92
2019-03-25T14:22:46.026Z,54.54
2019-03-25T14:25:14.668Z,56.99
2019-03-25T14:28:02.543Z,57.12
2019-03-25T14:30:31.229Z,59.70
2019-03-25T14:33:20.819Z,62.12
2019-03-25T14:36:08.763Z,61.63
2019-03-25T14:38:56.564Z,60.51
2019-03-25T14:41:25.197Z,60.19
2019-03-25T14:44:13.456Z,61.04
2019-03-25T14:46:42.202Z,59.04
2019-03-25T14:49:10.885Z,60.52
2019-03-25T14:51:39.524Z,60.47
2019-03-25T14:54:08.225Z,63.13
2019-03-25T14:56:56.149Z,66.88
2019-03-25T14:59:44.001Z,70.15
2019-03-25T15:02:12.749Z,72.55
2019-03-25T15:04:41.393Z,72.64
2019-03-25T15:07:10.073Z,71.10
2019-03-25T15:09:38.707Z,71.11
2019-03-25T15:12:07.394Z,70.36
2019-03-25T15:14:36.098Z,72.47
2019-03-25T15:17:44.583Z,72.44
2019-03-25T15:20:53.011Z,71.98
2019-03-25T15:23:40.884Z,69.86
2019-03-25T15:26:09.522Z,69.91
2019-03-25T15:28:38.269Z,70.10
2019-03-25T15:31:07.005Z,70.90
2019-03-25T15:33:35.616Z,69.69
2019-03-25T15:36:04.298Z,71.32
2019-03-25T15:41:20.555Z,69.78
2019-03-25T15:44:08.529Z,67.60
2019-03-25T15:46:56.459Z,65.76
2019-03-25T15:49:44.403Z,65.72
2019-03-25T15:52:13.036Z,63.36
2019-03-25T15:55:00.911Z,62.28
2019-03-25T15:57:29.589Z,62.65
2019-03-25T15:59:58.337Z,62.76
2019-03-25T16:02:27.025Z,60.51
2019-03-25T16:05:14.968Z,59.98
2019-03-25T16:08:02.873Z,60.37
2019-03-25T16:10:31.481Z,64.32
2019-03-25T16:13:00.153Z,64.60
2019-03-25T16:15:48.078Z,62.75
2019-03-25T16:18:36.808Z,63.33
2019-03-25T16:21:24.868Z,62.51
2019-03-25T16:23:53.580Z,63.33
2019-03-25T16:26:22.224Z,69.55
2019-03-25T16:29:10.085Z,73.39
2019-03-25T16:31:38.689Z,77.64
2019-03-25T16:34:07.370Z,80.67
2019-03-25T16:36:36.059Z,81.29
2019-03-25T16:39:44.493Z,80.71
2019-03-25T16:42:32.369Z,81.31
2019-03-25T16:45:20.337Z,79.02
2019-03-25T16:48:08.215Z,80.12
2019-03-25T16:50:36.782Z,80.72
2019-03-25T16:53:05.463Z,81.33
2019-03-25T16:55:34.146Z,79.76
2019-03-25T16:58:02.804Z,80.39
2019-03-25T17:00:31.483Z,81.46
2019-03-25T17:05:34.224Z,83.07
2019-03-25T17:08:22.103Z,83.68
2019-03-25T17:11:09.998Z,84.28
2019-03-25T17:13:59.452Z,84.49
2019-03-25T17:16:47.255Z,85.86
2019-03-25T17:19:15.934Z,85.79
2019-03-25T17:21:44.507Z,85.45
2019-03-25T17:24:14.234Z,84.28
2019-03-25T17:26:43.586Z,83.33
2019-03-25T17:29:12.264Z,82.47
2019-03-25T17:31:40.835Z,82.86
2019-03-25T17:34:28.784Z,82.90
2019-03-25T17:36:57.478Z,83.58
2019-03-25T17:39:45.314Z,83.64
2019-03-25T17:42:33.377Z,83.92
2019-03-25T17:45:21.228Z,84.51
2019-03-25T17:48:09.083Z,84.21
2019-03-25T17:50:57.106Z,85.18
2019-03-25T17:53:44.976Z,85.50
2019-03-25T17:56:33.040Z,86.18
2019-03-25T17:59:01.726Z,86.28
2019-03-25T18:04:19.568Z,88.24
2019-03-25T18:06:48.176Z,88.33
2019-03-25T18:12:04.501Z,87.73
2019-03-25T18:14:33.091Z,87.27
2019-03-25T18:17:21.177Z,87.76
2019-03-25T18:20:18.128Z,86.73
2019-03-25T18:22:40.171Z,87.03
2019-03-25T18:25:09.833Z,86.81
2019-03-25T18:27:38.500Z,87.52
2019-03-25T18:30:46.961Z,87.11
2019-03-25T18:33:16.308Z,86.39
2019-03-25T18:36:04.105Z,87.34
2019-03-25T18:38:52.060Z,87.70
2019-03-25T18:41:20.702Z,87.55
2019-03-25T18:44:08.778Z,87.36
2019-03-25T18:49:30.704Z,87.09
2019-03-25T18:52:18.464Z,86.82
2019-03-25T18:57:42.270Z,87.53
2019-03-25T19:00:50.730Z,87.22
2019-03-25T19:03:38.631Z,87.99
2019-03-25T19:06:07.392Z,88.40
2019-03-25T19:09:16.025Z,87.93
2019-03-25T19:11:44.700Z,88.09
2019-03-25T19:17:08.026Z,88.64
2019-03-25T19:19:36.791Z,89.14
2019-03-25T19:22:05.660Z,89.51
2019-03-25T19:27:42.492Z,90.12
2019-03-25T19:30:50.942Z,90.08
2019-03-25T19:33:19.886Z,89.98
2019-03-25T19:36:07.719Z,90.25
2019-03-25T19:38:37.181Z,90.68
2019-03-25T19:41:07.368Z,90.47
2019-03-25T19:44:02.171Z,90.39
2019-03-25T19:46:50.080Z,90.58
2019-03-25T19:49:37.899Z,90.81
2019-03-25T19:52:25.766Z,91.08
2019-03-25T19:54:54.329Z,91.68
2019-03-25T19:57:42.227Z,90.91
2019-03-25T20:00:31.600Z,90.36
2019-03-25T20:03:19.351Z,90.39
2019-03-25T20:06:27.777Z,90.12
2019-03-25T20:09:15.623Z,89.77
2019-03-25T20:12:03.385Z,89.47
2019-03-25T20:14:32.343Z,89.02
2019-03-25T20:17:20.150Z,89.42
2019-03-25T20:20:08.345Z,89.74
2019-03-25T20:25:31.739Z,90.71
2019-03-25T20:28:00.549Z,89.86
2019-03-25T20:30:29.202Z,90.09
2019-03-25T20:33:17.035Z,91.47
2019-03-25T20:35:45.914Z,91.62
2019-03-25T20:38:14.580Z,92.31
2019-03-25T20:41:02.604Z,92.15
2019-03-25T20:43:32.975Z,92.44
2019-03-25T20:46:20.946Z,93.60
2019-03-25T20:48:49.502Z,94.72
2019-03-25T20:51:37.293Z,94.67
2019-03-25T20:54:06.137Z,94.79
2019-03-25T20:56:34.781Z,94.28
2019-03-25T20:59:03.490Z,93.39
2019-03-25T21:01:32.122Z,92.91
2019-03-25T21:04:00.821Z,93.43
2019-03-25T21:06:29.531Z,94.75
2019-03-25T21:08:58.211Z,95.46
2019-03-25T21:11:27.034Z,95.76
2019-03-25T21:17:02.497Z,95.52
2019-03-25T21:19:50.364Z,95.21
2019-03-25T21:22:19.169Z,95.71
2019-03-25T21:25:07.071Z,95.84
2019-03-25T21:27:35.672Z,96.45
2019-03-25T21:32:59.659Z,97.14
2019-03-25T21:36:08.191Z,95.89
2019-03-25T21:38:36.815Z,95.85
2019-03-25T21:41:24.798Z,95.26
2019-03-25T21:44:14.363Z,96.11
2019-03-25T21:49:30.807Z,97.26
2019-03-25T21:51:59.822Z,97.17
2019-03-25T21:57:22.304Z,97.69
2019-03-25T21:59:51.183Z,98.10
2019-03-25T22:02:38.983Z,98.36
2019-03-25T22:05:26.941Z,98.80
2019-03-25T22:07:55.636Z,98.99
2019-03-25T22:10:36.119Z,98.76
2019-03-25T22:12:54.667Z,98.94
2019-03-25T22:15:23.313Z,98.73
2019-03-25T22:20:46.578Z,98.04
2019-03-25T22:25:51.012Z,98.45
2019-03-25T22:31:07.809Z,97.84
2019-03-25T22:33:36.429Z,97.39
2019-03-25T22:36:05.068Z,96.36
2019-03-25T22:38:53.063Z,95.99
2019-03-25T22:41:41.176Z,95.47
2019-03-25T22:44:11.817Z,95.13
2019-03-25T22:46:59.519Z,94.78
2019-03-25T22:49:28.217Z,95.09
2019-03-25T22:52:16.134Z,93.81
2019-03-25T22:54:46.449Z,94.63
2019-03-25T22:57:15.062Z,94.86
2019-03-25T22:59:43.752Z,94.04
2019-03-25T23:02:12.424Z,93.76
2019-03-25T23:04:40.997Z,92.98
2019-03-25T23:07:28.864Z,92.97
2019-03-25T23:09:57.420Z,92.63
2019-03-25T23:12:26.154Z,92.75
2019-03-25T23:15:34.656Z,92.71
2019-03-25T23:18:03.416Z,92.13
2019-03-25T23:20:51.248Z,92.14
2019-03-25T23:23:39.829Z,91.68
2019-03-25T23:26:08.877Z,92.01
2019-03-25T23:28:38.389Z,92.18
2019-03-25T23:31:07.151Z,92.85
2019-03-25T23:33:55.725Z,92.56
2019-03-25T23:36:25.118Z,92.18
2019-03-25T23:38:54.378Z,91.96
2019-03-25T23:42:03.200Z,92.04
2019-03-25T23:44:51.630Z,92.26
2019-03-25T23:50:28.856Z,91.11
2019-03-25T23:52:57.876Z,90.54
2019-03-25T23:55:27.101Z,90.74
2019-03-25T23:57:55.754Z,91.17
